sensor_id;sensor_type;location;lat;lon;timestamp;temperature;humidity
15983;DHT22;14442;50.196;8.096;2023-09-30T00:02:19;19.30;68.90
15983;DHT22;14442;50.196;8.096;2023-09-30T00:04:45;19.30;69.00
15983;DHT22;14442;50.196;8.096;2023-09-30T00:07:12;19.30;68.90
15983;DHT22;14442;50.196;8.096;2023-09-30T00:09:40;19.30;68.90
15983;DHT22;14442;50.196;8.096;2023-09-30T00:12:07;19.30;69.00
15983;DHT22;14442;50.196;8.096;2023-09-30T00:14:34;19.30;69.00
15983;DHT22;14442;50.196;8.096;2023-09-30T00:17:01;19.30;68.90
15983;DHT22;14442;50.196;8.096;2023-09-30T00:19:28;19.30;68.90
15983;DHT22;14442;50.196;8.096;2023-09-30T00:21:57;19.30;68.90
15983;DHT22;14442;50.196;8.096;2023-09-30T00:24:25;19.30;68.90
15983;DHT22;14442;50.196;8.096;2023-09-30T00:26:53;19.30;68.90
15983;DHT22;14442;50.196;8.096;2023-09-30T00:29:20;19.30;69.00
15983;DHT22;14442;50.196;8.096;2023-09-30T00:31:47;19.30;68.90
15983;DHT22;14442;50.196;8.096;2023-09-30T00:34:14;19.30;69.00
15983;DHT22;14442;50.196;8.096;2023-09-30T00:36:41;19.30;69.00
15983;DHT22;14442;50.196;8.096;2023-09-30T00:39:07;19.30;69.00
15983;DHT22;14442;50.196;8.096;2023-09-30T00:41:35;19.30;69.10
15983;DHT22;14442;50.196;8.096;2023-09-30T00:44:03;19.30;69.00
15983;DHT22;14442;50.196;8.096;2023-09-30T00:46:31;19.30;69.10
15983;DHT22;14442;50.196;8.096;2023-09-30T00:48:59;19.30;69.00
15983;DHT22;14442;50.196;8.096;2023-09-30T00:51:26;19.30;69.00
15983;DHT22;14442;50.196;8.096;2023-09-30T00:53:55;19.30;69.10
15983;DHT22;14442;50.196;8.096;2023-09-30T00:56:25;19.30;69.10
15983;DHT22;14442;50.196;8.096;2023-09-30T00:58:52;19.30;69.00
15983;DHT22;14442;50.196;8.096;2023-09-30T01:01:21;19.30;69.00
15983;DHT22;14442;50.196;8.096;2023-09-30T01:03:48;19.30;69.10
15983;DHT22;14442;50.196;8.096;2023-09-30T01:06:15;19.30;69.00
15983;DHT22;14442;50.196;8.096;2023-09-30T01:08:41;19.30;69.00
15983;DHT22;14442;50.196;8.096;2023-09-30T01:11:08;19.30;69.10
15983;DHT22;14442;50.196;8.096;2023-09-30T01:13:36;19.30;69.00
15983;DHT22;14442;50.196;8.096;2023-09-30T01:16:04;19.30;69.10
15983;DHT22;14442;50.196;8.096;2023-09-30T01:18:32;19.30;69.00
15983;DHT22;14442;50.196;8.096;2023-09-30T01:21:03;19.30;69.10
15983;DHT22;14442;50.196;8.096;2023-09-30T01:23:32;19.30;69.00
15983;DHT22;14442;50.196;8.096;2023-09-30T01:26:01;19.30;69.00
15983;DHT22;14442;50.196;8.096;2023-09-30T01:28:28;19.30;69.10
15983;DHT22;14442;50.196;8.096;2023-09-30T01:30:56;19.30;69.00
15983;DHT22;14442;50.196;8.096;2023-09-30T01:33:22;19.30;69.00
15983;DHT22;14442;50.196;8.096;2023-09-30T01:35:49;19.30;69.00
15983;DHT22;14442;50.196;8.096;2023-09-30T01:38:16;19.30;69.00
15983;DHT22;14442;50.196;8.096;2023-09-30T01:40:44;19.30;69.00
15983;DHT22;14442;50.196;8.096;2023-09-30T01:43:11;19.30;69.00
15983;DHT22;14442;50.196;8.096;2023-09-30T01:45:39;19.20;68.90
15983;DHT22;14442;50.196;8.096;2023-09-30T01:48:06;19.20;68.90
15983;DHT22;14442;50.196;8.096;2023-09-30T01:50:32;19.30;69.00
15983;DHT22;14442;50.196;8.096;2023-09-30T01:52:59;19.30;69.00
15983;DHT22;14442;50.196;8.096;2023-09-30T01:55:26;19.20;68.90
15983;DHT22;14442;50.196;8.096;2023-09-30T01:57:54;19.20;69.00
15983;DHT22;14442;50.196;8.096;2023-09-30T02:00:20;19.20;68.90
15983;DHT22;14442;50.196;8.096;2023-09-30T02:02:47;19.30;69.10
15983;DHT22;14442;50.196;8.096;2023-09-30T02:05:14;19.20;69.00
15983;DHT22;14442;50.196;8.096;2023-09-30T02:07:41;19.30;69.10
15983;DHT22;14442;50.196;8.096;2023-09-30T02:10:09;19.20;69.00
15983;DHT22;14442;50.196;8.096;2023-09-30T02:12:35;19.20;69.00
15983;DHT22;14442;50.196;8.096;2023-09-30T02:15:05;19.20;69.70
15983;DHT22;14442;50.196;8.096;2023-09-30T02:17:32;19.20;69.00
15983;DHT22;14442;50.196;8.096;2023-09-30T02:19:59;19.20;69.10
15983;DHT22;14442;50.196;8.096;2023-09-30T02:22:31;19.20;69.00
15983;DHT22;14442;50.196;8.096;2023-09-30T02:24:58;19.20;69.10
15983;DHT22;14442;50.196;8.096;2023-09-30T02:27:25;19.20;69.10
15983;DHT22;14442;50.196;8.096;2023-09-30T02:29:53;19.20;69.00
15983;DHT22;14442;50.196;8.096;2023-09-30T02:32:21;19.20;69.00
15983;DHT22;14442;50.196;8.096;2023-09-30T02:34:49;19.20;69.00
15983;DHT22;14442;50.196;8.096;2023-09-30T02:37:17;19.20;69.00
15983;DHT22;14442;50.196;8.096;2023-09-30T02:39:43;19.20;69.00
15983;DHT22;14442;50.196;8.096;2023-09-30T02:42:10;19.20;69.00
15983;DHT22;14442;50.196;8.096;2023-09-30T02:44:37;19.20;69.00
15983;DHT22;14442;50.196;8.096;2023-09-30T02:47:04;19.20;69.00
15983;DHT22;14442;50.196;8.096;2023-09-30T02:49:33;19.20;69.00
15983;DHT22;14442;50.196;8.096;2023-09-30T02:52:00;19.20;69.00
15983;DHT22;14442;50.196;8.096;2023-09-30T02:54:27;19.20;69.00
15983;DHT22;14442;50.196;8.096;2023-09-30T02:56:54;19.10;68.90
15983;DHT22;14442;50.196;8.096;2023-09-30T02:59:20;19.10;69.00
15983;DHT22;14442;50.196;8.096;2023-09-30T03:01:47;19.20;69.00
15983;DHT22;14442;50.196;8.096;2023-09-30T03:04:14;19.20;69.00
15983;DHT22;14442;50.196;8.096;2023-09-30T03:06:46;19.20;69.00
15983;DHT22;14442;50.196;8.096;2023-09-30T03:09:13;19.10;68.90
15983;DHT22;14442;50.196;8.096;2023-09-30T03:11:40;19.10;68.90
15983;DHT22;14442;50.196;8.096;2023-09-30T03:14:09;19.10;69.00
15983;DHT22;14442;50.196;8.096;2023-09-30T03:16:36;19.10;68.90
15983;DHT22;14442;50.196;8.096;2023-09-30T03:19:04;19.10;68.90
15983;DHT22;14442;50.196;8.096;2023-09-30T03:21:34;19.10;68.90
15983;DHT22;14442;50.196;8.096;2023-09-30T03:24:02;19.10;68.90
15983;DHT22;14442;50.196;8.096;2023-09-30T03:26:29;19.10;69.00
15983;DHT22;14442;50.196;8.096;2023-09-30T03:28:56;19.10;69.00
15983;DHT22;14442;50.196;8.096;2023-09-30T03:31:23;19.10;69.00
15983;DHT22;14442;50.196;8.096;2023-09-30T03:33:50;19.10;69.00
15983;DHT22;14442;50.196;8.096;2023-09-30T03:36:19;19.10;69.00
15983;DHT22;14442;50.196;8.096;2023-09-30T03:38:46;19.10;69.10
15983;DHT22;14442;50.196;8.096;2023-09-30T03:41:15;19.10;69.00
15983;DHT22;14442;50.196;8.096;2023-09-30T03:43:41;19.10;69.10
15983;DHT22;14442;50.196;8.096;2023-09-30T03:46:08;19.10;69.00
15983;DHT22;14442;50.196;8.096;2023-09-30T03:48:35;19.10;69.00
15983;DHT22;14442;50.196;8.096;2023-09-30T03:51:08;19.10;68.90
15983;DHT22;14442;50.196;8.096;2023-09-30T03:53:35;19.10;69.00
15983;DHT22;14442;50.196;8.096;2023-09-30T03:56:02;19.10;69.00
15983;DHT22;14442;50.196;8.096;2023-09-30T03:58:30;19.10;69.00
15983;DHT22;14442;50.196;8.096;2023-09-30T04:00:58;19.10;69.10
15983;DHT22;14442;50.196;8.096;2023-09-30T04:03:25;19.10;69.10
15983;DHT22;14442;50.196;8.096;2023-09-30T04:05:52;19.10;69.10
15983;DHT22;14442;50.196;8.096;2023-09-30T04:08:19;19.10;69.10
15983;DHT22;14442;50.196;8.096;2023-09-30T04:10:47;19.10;69.10
15983;DHT22;14442;50.196;8.096;2023-09-30T04:13:14;19.10;69.10
15983;DHT22;14442;50.196;8.096;2023-09-30T04:15:43;19.10;69.10
15983;DHT22;14442;50.196;8.096;2023-09-30T04:18:12;19.00;69.00
15983;DHT22;14442;50.196;8.096;2023-09-30T04:20:38;19.10;69.20
15983;DHT22;14442;50.196;8.096;2023-09-30T04:23:05;19.10;69.10
15983;DHT22;14442;50.196;8.096;2023-09-30T04:25:32;19.10;69.10
15983;DHT22;14442;50.196;8.096;2023-09-30T04:27:59;19.00;68.90
15983;DHT22;14442;50.196;8.096;2023-09-30T04:30:26;19.00;68.90
15983;DHT22;14442;50.196;8.096;2023-09-30T04:32:54;19.00;69.00
15983;DHT22;14442;50.196;8.096;2023-09-30T04:35:22;19.00;68.90
15983;DHT22;14442;50.196;8.096;2023-09-30T04:37:51;19.00;68.90
15983;DHT22;14442;50.196;8.096;2023-09-30T04:40:18;19.00;68.90
15983;DHT22;14442;50.196;8.096;2023-09-30T04:42:46;19.10;69.10
15983;DHT22;14442;50.196;8.096;2023-09-30T04:45:13;19.00;68.90
15983;DHT22;14442;50.196;8.096;2023-09-30T04:47:41;19.00;69.60
15983;DHT22;14442;50.196;8.096;2023-09-30T04:50:11;19.00;68.90
15983;DHT22;14442;50.196;8.096;2023-09-30T04:52:41;19.00;69.00
15983;DHT22;14442;50.196;8.096;2023-09-30T04:55:09;19.00;69.00
15983;DHT22;14442;50.196;8.096;2023-09-30T04:57:37;19.00;69.00
15983;DHT22;14442;50.196;8.096;2023-09-30T05:00:05;19.00;69.00
15983;DHT22;14442;50.196;8.096;2023-09-30T05:02:36;19.00;69.00
15983;DHT22;14442;50.196;8.096;2023-09-30T05:05:03;19.00;69.00
15983;DHT22;14442;50.196;8.096;2023-09-30T05:07:33;19.00;69.00
15983;DHT22;14442;50.196;8.096;2023-09-30T05:09:59;19.00;69.00
15983;DHT22;14442;50.196;8.096;2023-09-30T05:12:30;19.00;69.00
15983;DHT22;14442;50.196;8.096;2023-09-30T05:14:57;19.00;69.00
15983;DHT22;14442;50.196;8.096;2023-09-30T05:17:23;19.00;69.00
15983;DHT22;14442;50.196;8.096;2023-09-30T05:19:50;19.00;69.00
15983;DHT22;14442;50.196;8.096;2023-09-30T05:22:17;19.00;69.00
15983;DHT22;14442;50.196;8.096;2023-09-30T05:24:49;19.00;69.00
15983;DHT22;14442;50.196;8.096;2023-09-30T05:27:15;19.00;69.00
15983;DHT22;14442;50.196;8.096;2023-09-30T05:29:42;19.00;69.00
15983;DHT22;14442;50.196;8.096;2023-09-30T05:32:09;19.00;69.00
15983;DHT22;14442;50.196;8.096;2023-09-30T05:34:36;19.00;69.00
15983;DHT22;14442;50.196;8.096;2023-09-30T05:37:04;19.00;69.00
15983;DHT22;14442;50.196;8.096;2023-09-30T05:39:31;19.00;69.00
15983;DHT22;14442;50.196;8.096;2023-09-30T05:41:59;19.00;68.90
15983;DHT22;14442;50.196;8.096;2023-09-30T05:44:26;19.00;68.90
15983;DHT22;14442;50.196;8.096;2023-09-30T05:46:53;19.00;69.00
15983;DHT22;14442;50.196;8.096;2023-09-30T05:49:21;18.90;68.90
15983;DHT22;14442;50.196;8.096;2023-09-30T05:51:48;18.90;68.90
15983;DHT22;14442;50.196;8.096;2023-09-30T05:54:16;18.90;68.90
15983;DHT22;14442;50.196;8.096;2023-09-30T05:56:42;18.90;68.90
15983;DHT22;14442;50.196;8.096;2023-09-30T05:59:11;18.90;68.90
15983;DHT22;14442;50.196;8.096;2023-09-30T06:01:38;18.90;68.80
15983;DHT22;14442;50.196;8.096;2023-09-30T06:04:06;19.00;69.00
15983;DHT22;14442;50.196;8.096;2023-09-30T06:06:33;18.90;68.80
15983;DHT22;14442;50.196;8.096;2023-09-30T06:09:00;18.90;68.80
15983;DHT22;14442;50.196;8.096;2023-09-30T06:11:26;18.90;68.90
15983;DHT22;14442;50.196;8.096;2023-09-30T06:13:54;18.90;68.90
15983;DHT22;14442;50.196;8.096;2023-09-30T06:16:22;18.90;68.90
15983;DHT22;14442;50.196;8.096;2023-09-30T06:18:51;18.90;68.90
15983;DHT22;14442;50.196;8.096;2023-09-30T06:21:18;18.90;68.90
15983;DHT22;14442;50.196;8.096;2023-09-30T06:23:47;18.90;68.90
15983;DHT22;14442;50.196;8.096;2023-09-30T06:26:14;18.90;68.80
15983;DHT22;14442;50.196;8.096;2023-09-30T06:28:42;18.90;68.80
15983;DHT22;14442;50.196;8.096;2023-09-30T06:31:09;18.90;68.80
15983;DHT22;14442;50.196;8.096;2023-09-30T06:33:38;18.90;68.90
15983;DHT22;14442;50.196;8.096;2023-09-30T06:36:08;18.90;68.90
15983;DHT22;14442;50.196;8.096;2023-09-30T06:38:36;18.90;68.80
15983;DHT22;14442;50.196;8.096;2023-09-30T06:41:03;18.90;68.80
15983;DHT22;14442;50.196;8.096;2023-09-30T06:43:30;18.90;68.70
15983;DHT22;14442;50.196;8.096;2023-09-30T06:45:57;19.00;69.20
15983;DHT22;14442;50.196;8.096;2023-09-30T06:48:24;19.00;69.30
15983;DHT22;14442;50.196;8.096;2023-09-30T06:50:52;19.00;69.40
15983;DHT22;14442;50.196;8.096;2023-09-30T06:53:20;19.00;69.50
15983;DHT22;14442;50.196;8.096;2023-09-30T06:55:49;19.00;69.70
15983;DHT22;14442;50.196;8.096;2023-09-30T06:58:17;19.10;69.60
15983;DHT22;14442;50.196;8.096;2023-09-30T07:00:47;19.10;69.60
15983;DHT22;14442;50.196;8.096;2023-09-30T07:03:14;19.10;69.50
15983;DHT22;14442;50.196;8.096;2023-09-30T07:05:41;19.10;69.50
15983;DHT22;14442;50.196;8.096;2023-09-30T07:08:09;19.10;69.50
15983;DHT22;14442;50.196;8.096;2023-09-30T07:10:36;19.10;69.50
15983;DHT22;14442;50.196;8.096;2023-09-30T07:13:03;19.10;69.70
15983;DHT22;14442;50.196;8.096;2023-09-30T07:15:31;19.10;69.70
15983;DHT22;14442;50.196;8.096;2023-09-30T07:17:58;19.10;69.80
15983;DHT22;14442;50.196;8.096;2023-09-30T07:20:25;19.10;69.80
15983;DHT22;14442;50.196;8.096;2023-09-30T07:22:52;19.10;69.90
15983;DHT22;14442;50.196;8.096;2023-09-30T07:25:20;19.10;70.00
15983;DHT22;14442;50.196;8.096;2023-09-30T07:27:47;19.10;70.10
15983;DHT22;14442;50.196;8.096;2023-09-30T07:30:14;19.10;70.00
15983;DHT22;14442;50.196;8.096;2023-09-30T07:32:41;19.10;70.10
15983;DHT22;14442;50.196;8.096;2023-09-30T07:35:08;19.10;70.10
15983;DHT22;14442;50.196;8.096;2023-09-30T07:37:35;19.10;70.30
15983;DHT22;14442;50.196;8.096;2023-09-30T07:40:02;19.10;70.20
15983;DHT22;14442;50.196;8.096;2023-09-30T07:42:31;19.10;70.20
15983;DHT22;14442;50.196;8.096;2023-09-30T07:44:59;19.10;70.30
15983;DHT22;14442;50.196;8.096;2023-09-30T07:47:25;19.10;70.20
15983;DHT22;14442;50.196;8.096;2023-09-30T07:49:52;19.10;70.20
15983;DHT22;14442;50.196;8.096;2023-09-30T07:52:19;19.10;70.20
15983;DHT22;14442;50.196;8.096;2023-09-30T07:54:46;19.10;70.20
15983;DHT22;14442;50.196;8.096;2023-09-30T07:57:13;19.20;70.30
15983;DHT22;14442;50.196;8.096;2023-09-30T07:59:41;19.20;70.30
15983;DHT22;14442;50.196;8.096;2023-09-30T08:02:08;19.20;70.30
15983;DHT22;14442;50.196;8.096;2023-09-30T08:04:35;19.20;70.30
15983;DHT22;14442;50.196;8.096;2023-09-30T08:07:02;19.20;70.30
15983;DHT22;14442;50.196;8.096;2023-09-30T08:09:28;19.20;70.40
15983;DHT22;14442;50.196;8.096;2023-09-30T08:11:55;19.20;70.40
15983;DHT22;14442;50.196;8.096;2023-09-30T08:14:22;19.20;70.60
15983;DHT22;14442;50.196;8.096;2023-09-30T08:16:50;19.20;70.30
15983;DHT22;14442;50.196;8.096;2023-09-30T08:19:17;19.20;70.30
15983;DHT22;14442;50.196;8.096;2023-09-30T08:21:46;19.20;70.30
15983;DHT22;14442;50.196;8.096;2023-09-30T08:24:13;19.20;70.40
15983;DHT22;14442;50.196;8.096;2023-09-30T08:26:39;19.20;70.30
15983;DHT22;14442;50.196;8.096;2023-09-30T08:29:06;19.20;70.30
15983;DHT22;14442;50.196;8.096;2023-09-30T08:31:33;19.20;70.20
15983;DHT22;14442;50.196;8.096;2023-09-30T08:34:01;19.20;70.40
15983;DHT22;14442;50.196;8.096;2023-09-30T08:36:29;19.20;70.40
15983;DHT22;14442;50.196;8.096;2023-09-30T08:38:56;19.10;70.00
15983;DHT22;14442;50.196;8.096;2023-09-30T08:41:32;19.10;69.90
15983;DHT22;14442;50.196;8.096;2023-09-30T08:44:00;19.10;69.70
15983;DHT22;14442;50.196;8.096;2023-09-30T08:46:29;19.10;69.70
15983;DHT22;14442;50.196;8.096;2023-09-30T08:48:58;19.10;69.90
15983;DHT22;14442;50.196;8.096;2023-09-30T08:51:26;19.10;70.00
15983;DHT22;14442;50.196;8.096;2023-09-30T08:53:53;19.10;70.00
15983;DHT22;14442;50.196;8.096;2023-09-30T08:56:26;19.10;69.80
15983;DHT22;14442;50.196;8.096;2023-09-30T08:58:56;19.10;69.90
15983;DHT22;14442;50.196;8.096;2023-09-30T09:01:23;19.20;69.90
15983;DHT22;14442;50.196;8.096;2023-09-30T09:03:50;19.20;69.90
15983;DHT22;14442;50.196;8.096;2023-09-30T09:06:18;19.20;69.80
15983;DHT22;14442;50.196;8.096;2023-09-30T09:08:46;19.20;69.80
15983;DHT22;14442;50.196;8.096;2023-09-30T09:11:14;19.20;69.80
15983;DHT22;14442;50.196;8.096;2023-09-30T09:13:48;19.20;69.60
15983;DHT22;14442;50.196;8.096;2023-09-30T09:16:17;19.20;69.70
15983;DHT22;14442;50.196;8.096;2023-09-30T09:18:45;19.20;69.60
15983;DHT22;14442;50.196;8.096;2023-09-30T09:21:14;19.20;69.50
15983;DHT22;14442;50.196;8.096;2023-09-30T09:23:42;19.20;69.50
15983;DHT22;14442;50.196;8.096;2023-09-30T09:26:11;19.20;69.40
15983;DHT22;14442;50.196;8.096;2023-09-30T09:28:39;19.20;69.50
15983;DHT22;14442;50.196;8.096;2023-09-30T09:31:19;19.30;69.50
15983;DHT22;14442;50.196;8.096;2023-09-30T09:33:47;19.30;69.50
15983;DHT22;14442;50.196;8.096;2023-09-30T09:36:15;19.20;69.20
15983;DHT22;14442;50.196;8.096;2023-09-30T09:38:45;19.20;69.20
15983;DHT22;14442;50.196;8.096;2023-09-30T09:41:14;19.30;69.40
15983;DHT22;14442;50.196;8.096;2023-09-30T09:43:42;19.30;69.30
15983;DHT22;14442;50.196;8.096;2023-09-30T09:46:09;19.30;69.30
15983;DHT22;14442;50.196;8.096;2023-09-30T09:48:37;19.30;69.20
15983;DHT22;14442;50.196;8.096;2023-09-30T09:51:04;19.30;69.10
15983;DHT22;14442;50.196;8.096;2023-09-30T09:53:34;19.30;68.90
15983;DHT22;14442;50.196;8.096;2023-09-30T09:56:02;19.30;68.80
15983;DHT22;14442;50.196;8.096;2023-09-30T09:58:32;19.30;68.60
15983;DHT22;14442;50.196;8.096;2023-09-30T10:01:01;19.30;68.30
15983;DHT22;14442;50.196;8.096;2023-09-30T10:03:28;19.20;68.10
15983;DHT22;14442;50.196;8.096;2023-09-30T10:05:55;19.20;68.00
15983;DHT22;14442;50.196;8.096;2023-09-30T10:08:29;19.20;68.10
15983;DHT22;14442;50.196;8.096;2023-09-30T10:10:57;19.30;68.30
15983;DHT22;14442;50.196;8.096;2023-09-30T10:13:51;19.30;68.40
15983;DHT22;14442;50.196;8.096;2023-09-30T10:16:49;19.30;68.40
15983;DHT22;14442;50.196;8.096;2023-09-30T10:19:18;19.30;68.60
15983;DHT22;14442;50.196;8.096;2023-09-30T10:22:20;19.40;68.80
15983;DHT22;14442;50.196;8.096;2023-09-30T10:24:48;19.40;68.60
15983;DHT22;14442;50.196;8.096;2023-09-30T10:27:36;19.40;68.60
15983;DHT22;14442;50.196;8.096;2023-09-30T10:30:11;19.40;68.70
15983;DHT22;14442;50.196;8.096;2023-09-30T10:33:12;19.30;68.50
15983;DHT22;14442;50.196;8.096;2023-09-30T10:35:44;19.40;68.60
15983;DHT22;14442;50.196;8.096;2023-09-30T10:38:36;19.40;68.70
15983;DHT22;14442;50.196;8.096;2023-09-30T10:41:03;19.40;68.80
15983;DHT22;14442;50.196;8.096;2023-09-30T10:43:31;19.40;68.80
15983;DHT22;14442;50.196;8.096;2023-09-30T10:45:59;19.40;69.00
15983;DHT22;14442;50.196;8.096;2023-09-30T10:48:36;19.40;69.00
15983;DHT22;14442;50.196;8.096;2023-09-30T10:51:11;19.40;69.20
15983;DHT22;14442;50.196;8.096;2023-09-30T10:53:46;19.30;69.10
15983;DHT22;14442;50.196;8.096;2023-09-30T10:56:13;19.40;69.10
15983;DHT22;14442;50.196;8.096;2023-09-30T10:58:41;19.30;69.10
15983;DHT22;14442;50.196;8.096;2023-09-30T11:01:10;19.40;69.30
15983;DHT22;14442;50.196;8.096;2023-09-30T11:03:37;19.40;69.30
15983;DHT22;14442;50.196;8.096;2023-09-30T11:06:03;19.40;69.30
15983;DHT22;14442;50.196;8.096;2023-09-30T11:08:30;19.40;69.30
15983;DHT22;14442;50.196;8.096;2023-09-30T11:10:58;19.40;69.30
15983;DHT22;14442;50.196;8.096;2023-09-30T11:13:31;19.40;69.30
15983;DHT22;14442;50.196;8.096;2023-09-30T11:16:03;19.40;69.30
15983;DHT22;14442;50.196;8.096;2023-09-30T11:18:32;19.50;69.40
15983;DHT22;14442;50.196;8.096;2023-09-30T11:21:07;19.50;69.40
15983;DHT22;14442;50.196;8.096;2023-09-30T11:23:42;19.50;69.40
15983;DHT22;14442;50.196;8.096;2023-09-30T11:26:09;19.50;69.40
15983;DHT22;14442;50.196;8.096;2023-09-30T11:28:37;19.50;69.40
15983;DHT22;14442;50.196;8.096;2023-09-30T11:31:08;19.50;69.30
15983;DHT22;14442;50.196;8.096;2023-09-30T11:33:47;19.50;69.30
15983;DHT22;14442;50.196;8.096;2023-09-30T11:36:15;19.60;69.30
15983;DHT22;14442;50.196;8.096;2023-09-30T11:38:46;19.60;69.30
15983;DHT22;14442;50.196;8.096;2023-09-30T11:41:13;19.60;69.20
15983;DHT22;14442;50.196;8.096;2023-09-30T11:43:58;19.50;69.20
15983;DHT22;14442;50.196;8.096;2023-09-30T11:46:24;19.50;69.20
15983;DHT22;14442;50.196;8.096;2023-09-30T11:48:57;19.50;69.20
15983;DHT22;14442;50.196;8.096;2023-09-30T11:51:24;19.50;69.20
15983;DHT22;14442;50.196;8.096;2023-09-30T11:53:53;19.50;69.30
15983;DHT22;14442;50.196;8.096;2023-09-30T11:56:21;19.50;69.30
15983;DHT22;14442;50.196;8.096;2023-09-30T11:58:53;19.50;69.20
15983;DHT22;14442;50.196;8.096;2023-09-30T12:01:20;19.60;69.30
15983;DHT22;14442;50.196;8.096;2023-09-30T12:03:47;19.60;69.20
15983;DHT22;14442;50.196;8.096;2023-09-30T12:06:14;19.60;69.20
15983;DHT22;14442;50.196;8.096;2023-09-30T12:08:41;19.60;69.10
15983;DHT22;14442;50.196;8.096;2023-09-30T12:11:09;19.70;69.10
15983;DHT22;14442;50.196;8.096;2023-09-30T12:13:38;19.80;69.20
15983;DHT22;14442;50.196;8.096;2023-09-30T12:16:05;19.70;69.00
15983;DHT22;14442;50.196;8.096;2023-09-30T12:18:32;19.70;69.00
15983;DHT22;14442;50.196;8.096;2023-09-30T12:20:58;19.80;69.10
15983;DHT22;14442;50.196;8.096;2023-09-30T12:23:25;19.80;69.00
15983;DHT22;14442;50.196;8.096;2023-09-30T12:25:52;19.80;68.90
15983;DHT22;14442;50.196;8.096;2023-09-30T12:28:21;19.90;69.00
15983;DHT22;14442;50.196;8.096;2023-09-30T12:30:47;19.90;69.00
15983;DHT22;14442;50.196;8.096;2023-09-30T12:33:14;19.90;68.90
15983;DHT22;14442;50.196;8.096;2023-09-30T12:35:41;19.90;68.90
15983;DHT22;14442;50.196;8.096;2023-09-30T12:38:08;19.90;68.90
15983;DHT22;14442;50.196;8.096;2023-09-30T12:40:34;19.90;68.80
15983;DHT22;14442;50.196;8.096;2023-09-30T12:43:01;19.90;68.80
15983;DHT22;14442;50.196;8.096;2023-09-30T12:45:29;20.00;68.80
15983;DHT22;14442;50.196;8.096;2023-09-30T12:47:56;20.00;68.70
15983;DHT22;14442;50.196;8.096;2023-09-30T12:50:22;20.00;68.60
15983;DHT22;14442;50.196;8.096;2023-09-30T12:52:49;20.00;68.60
15983;DHT22;14442;50.196;8.096;2023-09-30T12:55:16;20.10;68.60
15983;DHT22;14442;50.196;8.096;2023-09-30T12:57:43;20.10;68.60
15983;DHT22;14442;50.196;8.096;2023-09-30T13:00:10;20.10;68.60
15983;DHT22;14442;50.196;8.096;2023-09-30T13:02:38;20.10;68.60
15983;DHT22;14442;50.196;8.096;2023-09-30T13:05:05;20.10;68.60
15983;DHT22;14442;50.196;8.096;2023-09-30T13:07:33;20.10;68.60
15983;DHT22;14442;50.196;8.096;2023-09-30T13:09:59;20.20;68.60
15983;DHT22;14442;50.196;8.096;2023-09-30T13:12:27;20.30;68.50
15983;DHT22;14442;50.196;8.096;2023-09-30T13:14:53;20.30;68.40
15983;DHT22;14442;50.196;8.096;2023-09-30T13:17:21;20.40;68.30
15983;DHT22;14442;50.196;8.096;2023-09-30T13:19:50;20.40;68.20
15983;DHT22;14442;50.196;8.096;2023-09-30T13:22:17;20.30;68.10
15983;DHT22;14442;50.196;8.096;2023-09-30T13:24:44;20.30;68.20
15983;DHT22;14442;50.196;8.096;2023-09-30T13:27:11;20.20;68.30
15983;DHT22;14442;50.196;8.096;2023-09-30T13:29:39;20.20;68.30
15983;DHT22;14442;50.196;8.096;2023-09-30T13:32:06;20.20;68.60
15983;DHT22;14442;50.196;8.096;2023-09-30T13:34:33;20.10;68.40
15983;DHT22;14442;50.196;8.096;2023-09-30T13:37:01;20.10;68.60
15983;DHT22;14442;50.196;8.096;2023-09-30T13:39:28;20.10;68.30
15983;DHT22;14442;50.196;8.096;2023-09-30T13:41:54;20.10;68.30
15983;DHT22;14442;50.196;8.096;2023-09-30T13:44:21;20.10;68.30
15983;DHT22;14442;50.196;8.096;2023-09-30T13:46:48;20.20;68.30
15983;DHT22;14442;50.196;8.096;2023-09-30T13:49:15;20.10;68.20
15983;DHT22;14442;50.196;8.096;2023-09-30T13:51:43;20.20;68.30
15983;DHT22;14442;50.196;8.096;2023-09-30T13:54:11;20.20;68.30
15983;DHT22;14442;50.196;8.096;2023-09-30T13:56:38;20.10;68.20
15983;DHT22;14442;50.196;8.096;2023-09-30T13:59:04;20.20;68.20
15983;DHT22;14442;50.196;8.096;2023-09-30T14:01:31;20.20;68.20
15983;DHT22;14442;50.196;8.096;2023-09-30T14:03:58;20.20;68.20
15983;DHT22;14442;50.196;8.096;2023-09-30T14:06:25;20.20;68.20
15983;DHT22;14442;50.196;8.096;2023-09-30T14:08:51;20.20;68.20
15983;DHT22;14442;50.196;8.096;2023-09-30T14:11:20;20.20;68.10
15983;DHT22;14442;50.196;8.096;2023-09-30T14:13:47;20.20;68.20
15983;DHT22;14442;50.196;8.096;2023-09-30T14:16:14;20.20;68.10
15983;DHT22;14442;50.196;8.096;2023-09-30T14:18:41;20.20;68.10
15983;DHT22;14442;50.196;8.096;2023-09-30T14:21:08;20.10;68.00
15983;DHT22;14442;50.196;8.096;2023-09-30T14:23:35;20.20;68.10
15983;DHT22;14442;50.196;8.096;2023-09-30T14:26:01;20.20;68.10
15983;DHT22;14442;50.196;8.096;2023-09-30T14:28:37;20.20;68.10
15983;DHT22;14442;50.196;8.096;2023-09-30T14:31:04;20.20;68.10
15983;DHT22;14442;50.196;8.096;2023-09-30T14:33:31;20.20;68.10
15983;DHT22;14442;50.196;8.096;2023-09-30T14:35:57;20.20;68.10
15983;DHT22;14442;50.196;8.096;2023-09-30T14:38:24;20.20;68.10
15983;DHT22;14442;50.196;8.096;2023-09-30T14:40:52;20.20;68.10
15983;DHT22;14442;50.196;8.096;2023-09-30T14:43:18;20.10;68.00
15983;DHT22;14442;50.196;8.096;2023-09-30T14:45:47;20.20;68.10
15983;DHT22;14442;50.196;8.096;2023-09-30T14:48:13;20.20;68.10
15983;DHT22;14442;50.196;8.096;2023-09-30T14:50:48;20.20;68.00
15983;DHT22;14442;50.196;8.096;2023-09-30T14:53:15;20.10;68.00
15983;DHT22;14442;50.196;8.096;2023-09-30T14:55:42;20.10;68.00
15983;DHT22;14442;50.196;8.096;2023-09-30T14:58:09;20.10;68.00
15983;DHT22;14442;50.196;8.096;2023-09-30T15:00:35;20.10;68.00
15983;DHT22;14442;50.196;8.096;2023-09-30T15:03:04;20.10;68.00
15983;DHT22;14442;50.196;8.096;2023-09-30T15:05:31;20.10;68.00
15983;DHT22;14442;50.196;8.096;2023-09-30T15:07:58;20.00;68.00
15983;DHT22;14442;50.196;8.096;2023-09-30T15:10:26;20.10;68.10
15983;DHT22;14442;50.196;8.096;2023-09-30T15:12:53;20.10;68.10
15983;DHT22;14442;50.196;8.096;2023-09-30T15:15:20;20.00;68.10
15983;DHT22;14442;50.196;8.096;2023-09-30T15:17:47;20.00;68.10
15983;DHT22;14442;50.196;8.096;2023-09-30T15:20:15;20.00;68.10
15983;DHT22;14442;50.196;8.096;2023-09-30T15:22:42;20.00;68.20
15983;DHT22;14442;50.196;8.096;2023-09-30T15:25:09;20.00;68.10
15983;DHT22;14442;50.196;8.096;2023-09-30T15:27:36;20.00;68.20
15983;DHT22;14442;50.196;8.096;2023-09-30T15:30:03;20.00;68.20
15983;DHT22;14442;50.196;8.096;2023-09-30T15:32:31;20.00;68.20
15983;DHT22;14442;50.196;8.096;2023-09-30T15:34:59;20.00;68.20
15983;DHT22;14442;50.196;8.096;2023-09-30T15:37:27;19.90;68.20